createdAt,value
2023-05-19T04:17:20.232Z,100.00
2023-05-19T04:20:31.115Z,100.00
2023-05-19T04:23:39.032Z,100.00
2023-05-19T04:26:48.715Z,100.00
2023-05-19T04:29:57.765Z,100.00
2023-05-19T04:33:06.686Z,100.00
2023-05-19T04:36:17.353Z,100.00
2023-05-19T04:39:26.733Z,100.00
2023-05-19T04:42:38.031Z,100.00
2023-05-19T04:45:45.321Z,100.00
2023-05-19T04:48:55.779Z,100.00
2023-05-19T04:52:05.222Z,100.00
2023-05-19T04:55:11.674Z,100.00
2023-05-19T04:58:21.315Z,100.00
2023-05-19T05:01:26.773Z,100.00
2023-05-19T05:04:34.306Z,100.00
2023-05-19T05:07:41.176Z,100.00
2023-05-19T05:10:48.855Z,100.00
2023-05-19T05:13:55.749Z,100.00
2023-05-19T05:17:03.479Z,100.00
2023-05-19T05:20:11.615Z,100.00
2023-05-19T05:23:21.698Z,100.00
2023-05-19T05:26:35.055Z,100.00
2023-05-19T05:29:45.068Z,100.00
2023-05-19T05:32:52.742Z,100.00
2023-05-19T05:36:00.160Z,100.00
2023-05-19T05:39:06.279Z,100.00
2023-05-19T05:42:12.881Z,100.00
2023-05-19T05:45:19.920Z,100.00
2023-05-19T05:48:26.994Z,100.00
2023-05-19T05:51:34.659Z,100.00
2023-05-19T05:54:40.671Z,100.00
2023-05-19T05:57:45.335Z,100.00
2023-05-19T06:00:52.142Z,100.00
2023-05-19T06:03:59.808Z,100.00
2023-05-19T06:07:05.258Z,100.00
2023-05-19T06:10:11.215Z,100.00
2023-05-19T06:13:22.910Z,100.00
2023-05-19T06:16:28.108Z,100.00
2023-05-19T06:19:32.414Z,100.00
2023-05-19T06:22:37.710Z,100.00
2023-05-19T06:25:42.858Z,100.00
2023-05-19T06:28:52.501Z,100.00
2023-05-19T06:31:58.759Z,100.00
2023-05-19T06:35:03.526Z,100.00
2023-05-19T06:38:11.481Z,100.00
2023-05-19T06:41:15.897Z,100.00
2023-05-19T06:44:21.040Z,100.00
2023-05-19T06:47:29.724Z,100.00
2023-05-19T06:50:35.951Z,100.00
2023-05-19T06:53:42.843Z,100.00
2023-05-19T06:56:50.773Z,100.00
2023-05-19T06:59:55.961Z,100.00
2023-05-19T07:03:00.553Z,100.00
2023-05-19T07:06:07.947Z,100.00
2023-05-19T07:09:13.833Z,100.00
2023-05-19T07:12:18.712Z,100.00
2023-05-19T07:15:24.219Z,100.00
2023-05-19T07:18:32.824Z,100.00
2023-05-19T07:21:36.678Z,100.00
2023-05-19T07:24:44.508Z,100.00
2023-05-19T07:27:49.680Z,100.00
2023-05-19T07:30:55.558Z,100.00
2023-05-19T07:33:59.640Z,100.00
2023-05-19T07:37:04.562Z,100.00
2023-05-19T07:40:10.043Z,99.64
2023-05-19T07:43:16.382Z,99.48
2023-05-19T07:46:20.181Z,99.83
2023-05-19T07:49:24.726Z,98.03
2023-05-19T07:52:30.937Z,100.00
2023-05-19T07:55:37.050Z,100.00
2023-05-19T07:58:41.168Z,98.89
2023-05-19T08:01:46.253Z,95.79
2023-05-19T08:04:52.687Z,99.46
2023-05-19T08:07:57.821Z,89.53
2023-05-19T08:11:05.449Z,94.98
2023-05-19T08:14:10.284Z,96.84
2023-05-19T08:17:15.322Z,88.67
2023-05-19T08:20:20.089Z,82.55
2023-05-19T08:23:24.266Z,80.87
2023-05-19T08:26:28.974Z,95.75
2023-05-19T08:29:33.718Z,88.84
2023-05-19T08:32:38.897Z,95.66
2023-05-19T08:35:44.810Z,94.64
2023-05-19T08:38:49.049Z,98.27
2023-05-19T08:41:56.283Z,90.02
2023-05-19T08:45:01.888Z,85.27
2023-05-19T08:48:08.424Z,83.95
2023-05-19T08:51:40.037Z,81.56
2023-05-19T08:55:01.486Z,79.83
2023-05-19T08:58:06.661Z,75.11
2023-05-19T09:01:14.918Z,72.63
2023-05-19T09:04:20.565Z,76.37
2023-05-19T09:07:26.699Z,75.91
2023-05-19T09:10:31.385Z,74.41
2023-05-19T09:13:36.792Z,74.74
2023-05-19T09:16:42.140Z,69.97
2023-05-19T09:19:49.549Z,66.23
2023-05-19T09:22:54.548Z,71.80
2023-05-19T09:25:58.909Z,69.91
2023-05-19T09:29:02.507Z,68.87
2023-05-19T09:32:06.832Z,71.45
2023-05-19T09:35:18.446Z,71.35
2023-05-19T09:38:29.097Z,73.71
2023-05-19T09:41:34.496Z,81.28
2023-05-19T09:44:42.828Z,85.81
2023-05-19T09:47:47.886Z,83.38
2023-05-19T09:50:54.169Z,82.82
2023-05-19T09:54:00.318Z,81.19
2023-05-19T09:57:08.616Z,84.37
2023-05-19T10:00:18.442Z,78.62
2023-05-19T10:03:25.207Z,76.80
2023-05-19T10:06:31.715Z,78.43
2023-05-19T10:09:38.484Z,76.03
2023-05-19T10:12:45.676Z,77.83
2023-05-19T10:19:01.729Z,67.17
2023-05-19T10:22:07.649Z,63.81
2023-05-19T10:25:20.476Z,65.13
2023-05-19T10:28:29.569Z,60.49
2023-05-19T10:31:36.401Z,57.02
2023-05-19T10:35:05.126Z,50.88
2023-05-19T10:38:16.863Z,51.27
2023-05-19T10:41:42.325Z,52.09
2023-05-19T10:45:12.665Z,53.55
2023-05-19T10:48:17.913Z,53.62
2023-05-19T10:51:31.661Z,53.70
2023-05-19T10:54:41.492Z,52.45
2023-05-19T10:57:57.241Z,58.36
2023-05-19T11:01:08.506Z,58.70
2023-05-19T11:04:14.113Z,62.86
2023-05-19T11:07:22.012Z,56.20
2023-05-19T11:10:28.930Z,59.25
2023-05-19T11:13:34.277Z,55.51
2023-05-19T11:16:45.138Z,54.26
2023-05-19T11:19:57.628Z,55.11
2023-05-19T11:23:09.015Z,56.57
2023-05-19T11:26:12.994Z,56.05
2023-05-19T11:29:17.923Z,59.05
2023-05-19T11:32:26.096Z,61.06
2023-05-19T11:35:30.956Z,58.73
2023-05-19T11:38:36.617Z,66.24
2023-05-19T11:41:41.954Z,64.10
2023-05-19T11:44:47.616Z,62.12
2023-05-19T11:48:02.085Z,60.23
2023-05-19T11:51:08.838Z,59.44
2023-05-19T11:54:15.050Z,56.82
2023-05-19T11:57:19.329Z,56.77
2023-05-19T12:00:27.326Z,59.02
2023-05-19T12:03:36.830Z,60.83
2023-05-19T12:06:43.344Z,57.94
2023-05-19T12:09:50.919Z,59.75
2023-05-19T12:12:55.475Z,60.41
2023-05-19T12:16:03.992Z,65.11
2023-05-19T12:19:09.781Z,61.12
2023-05-19T12:22:18.540Z,59.29
2023-05-19T12:25:24.052Z,61.95
2023-05-19T12:28:31.789Z,60.46
2023-05-19T12:31:39.734Z,59.16
2023-05-19T12:34:46.592Z,60.64
2023-05-19T12:37:51.994Z,60.74
2023-05-19T12:41:00.271Z,61.87
2023-05-19T12:44:15.750Z,64.31
2023-05-19T12:47:20.514Z,62.14
2023-05-19T12:50:32.830Z,67.23
2023-05-19T12:53:38.341Z,63.79
2023-05-19T12:56:51.546Z,63.38
2023-05-19T13:00:08.046Z,63.91
2023-05-19T13:03:22.209Z,62.97
2023-05-19T13:06:32.166Z,65.51
2023-05-19T13:09:40.259Z,65.50
2023-05-19T13:12:48.773Z,61.38
2023-05-19T13:15:55.653Z,62.65
2023-05-19T13:19:01.891Z,63.14
2023-05-19T13:22:06.495Z,61.20
2023-05-19T13:25:14.354Z,61.15
2023-05-19T13:28:26.947Z,62.90
2023-05-19T13:31:35.628Z,60.18
2023-05-19T13:34:43.100Z,62.70
2023-05-19T13:37:51.068Z,61.26
2023-05-19T13:40:59.309Z,63.52
2023-05-19T13:44:05.905Z,66.85
2023-05-19T13:47:11.708Z,65.57
2023-05-19T13:50:21.512Z,63.99
2023-05-19T13:53:29.574Z,61.93
2023-05-19T13:56:36.229Z,58.95
2023-05-19T13:59:57.198Z,59.78
2023-05-19T14:03:20.597Z,61.19
2023-05-19T14:06:28.397Z,60.65
2023-05-19T14:09:34.533Z,58.72
2023-05-19T14:12:55.137Z,60.07
2023-05-19T14:16:07.101Z,60.12
2023-05-19T14:19:14.685Z,60.45
2023-05-19T14:22:21.759Z,57.80
2023-05-19T14:25:30.977Z,56.32
2023-05-19T14:28:35.784Z,59.25
2023-05-19T14:31:44.082Z,59.06
2023-05-19T14:34:56.190Z,58.15
2023-05-19T14:38:03.212Z,57.65
2023-05-19T14:41:11.166Z,58.44
2023-05-19T14:44:18.761Z,57.73
2023-05-19T14:47:25.187Z,56.74
2023-05-19T14:50:33.440Z,55.59
2023-05-19T14:53:41.874Z,55.24
2023-05-19T14:56:49.927Z,54.45
2023-05-19T14:59:58.321Z,57.74
2023-05-19T15:03:05.056Z,57.07
2023-05-19T15:06:13.205Z,58.54
2023-05-19T15:09:21.204Z,56.42
2023-05-19T15:12:28.978Z,55.33
2023-05-19T15:15:36.509Z,56.99
2023-05-19T15:18:43.582Z,58.58
